Winchester, Virginia
Current Conditions -  °F | °C
As of 8:35 PM on Monday 20 Oct 2014 (Local Time) from KOKV Reporting Station
Overcast Overcast  
Wind Chill: 55°   Ceiling: 9500
Heat Index: 55°   Visibility: 10mi
Dew Point: 46°   Wind: 5mph
Humidity: 72%   Direction: 90°E
Pressure: 29.93"   Gusts: NA
Location:  39.18°N, 78.16°W
Report Text: KOKV 210035Z AUTO 09004KT 10SM SCT075 OVC095 13/08 A2993 RMK AO2 LTG DSNT NW
Loading
Personal Weather Stations






























Interactive Weather Map
Tropical Storm Tracking
New forecast layout! Learn more

10-Day Weather Forecast

Advertisements
Track Severe Weather on mobile